Time;durP1;ratioP1;P1;durP2;ratioP2;P2;SDS_P1;SDS_P2;PMS_P1;PMS_P2;Temp;Humidity;BMP_temperature;BMP_pressure;BME280_temperature;BME280_humidity;BME280_pressure;Samples;Min_cycle;Max_cycle;Signal;HPM_P1;HPM_P2
2022/12/16 00:00:34;;;;;;;;;;;;;;;2.70;100.00;99181.19;5017581;28;20012;-81
2022/12/16 00:03:00;;;;;;;;;;;;;;;2.58;100.00;99184.03;5015703;28;19965;-82
2022/12/16 00:05:26;;;;;;;;;;;;;;;2.60;100.00;99184.69;5019164;28;19925;-83
2022/12/16 00:07:55;;;;;;;;;;;;;;;2.65;100.00;99180.81;5024276;28;20485;-82
2022/12/16 00:10:20;;;;;;;;;;;;;;;2.61;100.00;99182.91;5022395;28;19956;-84
2022/12/16 00:12:46;;;;;;;;;;;;;;;2.53;100.00;99174.94;5016183;28;19921;-82
2022/12/16 00:15:11;;;;;;;;;;;;;;;2.55;100.00;99173.81;5017449;28;19921;-83
2022/12/16 00:17:38;;;;;;;;;;;;;;;2.66;100.00;99177.22;5017119;28;19925;-81
2022/12/16 00:20:04;;;;;;;;;;;;;;;2.69;100.00;99179.53;5016579;28;19924;-81
2022/12/16 00:22:29;;;;;;;;;;;;;;;2.62;100.00;99165.44;5001658;28;19944;-81
2022/12/16 00:24:55;;;;;;;;;;;;;;;2.71;100.00;99164.53;5026248;28;20100;-84
2022/12/16 00:27:20;;;;;;;;;;;;;;;2.72;100.00;99171.44;4999536;28;19988;-81
2022/12/16 00:29:47;;;;;;;;;;;;;;;2.70;100.00;99165.50;5016169;28;19928;-82
2022/12/16 00:32:12;;;;;;;;;;;;;;;2.70;100.00;99168.94;5015937;28;19921;-82
2022/12/16 00:34:37;;;;;;;;;;;;;;;2.70;100.00;99174.19;5015272;28;19967;-83
2022/12/16 00:37:04;;;;;;;;;;;;;;;2.71;100.00;99181.06;5015990;28;19932;-83
2022/12/16 00:39:29;;;;;;;;;;;;;;;2.64;100.00;99171.31;5015808;28;20344;-85
2022/12/16 00:41:54;;;;;;;;;;;;;;;2.69;100.00;99184.78;5015854;28;19933;-83
2022/12/16 00:44:20;;;;;;;;;;;;;;;2.70;100.00;99165.50;5015618;28;20366;-84
2022/12/16 00:46:45;;;;;;;;;;;;;;;2.78;100.00;99179.53;4997815;28;19921;-82
2022/12/16 00:49:11;;;;;;;;;;;;;;;2.85;100.00;99180.56;4997788;28;20286;-82
2022/12/16 00:51:36;;;;;;;;;;;;;;;2.85;100.00;99185.00;5015694;28;19921;-81
2022/12/16 00:54:01;;;;;;;;;;;;;;;3.00;100.00;99186.13;5015528;28;19967;-81
2022/12/16 00:56:27;;;;;;;;;;;;;;;2.88;100.00;99192.56;5015692;28;19960;-83
2022/12/16 00:58:52;;;;;;;;;;;;;;;2.96;100.00;99190.00;5015763;28;19965;-83
2022/12/16 01:01:18;;;;;;;;;;;;;;;2.93;100.00;99188.53;5015644;28;19964;-82
2022/12/16 01:03:43;;;;;;;;;;;;;;;3.08;100.00;99207.19;5016135;28;19921;-83
2022/12/16 01:06:09;;;;;;;;;;;;;;;3.22;100.00;99198.81;5019618;28;19928;-82
2022/12/16 01:08:35;;;;;;;;;;;;;;;3.19;100.00;99180.78;5019100;28;19936;-83
2022/12/16 01:11:00;;;;;;;;;;;;;;;3.09;100.00;99185.25;5001609;28;20298;-81
2022/12/16 01:13:26;;;;;;;;;;;;;;;3.08;100.00;99186.25;5019460;28;19928;-83
2022/12/16 01:15:52;;;;;;;;;;;;;;;3.37;100.00;99186.88;5018966;28;20282;-84
2022/12/16 01:18:18;;;;;;;;;;;;;;;3.40;100.00;99197.03;5018840;28;19924;-83
2022/12/16 01:20:43;;;;;;;;;;;;;;;3.43;100.00;99195.91;5018992;28;19921;-80
2022/12/16 01:23:09;;;;;;;;;;;;;;;3.26;100.00;99200.16;5019405;28;19922;-82
2022/12/16 01:25:34;;;;;;;;;;;;;;;3.35;100.00;99203.66;5020506;28;19956;-84
2022/12/16 01:28:00;;;;;;;;;;;;;;;3.55;100.00;99198.16;5002138;28;19956;-82
2022/12/16 01:30:25;;;;;;;;;;;;;;;3.53;100.00;99197.50;5021403;28;19922;-81
2022/12/16 01:32:51;;;;;;;;;;;;;;;3.40;100.00;99197.03;5018633;28;19921;-85
2022/12/16 01:35:16;;;;;;;;;;;;;;;3.28;100.00;99187.72;5018796;28;19956;-81
2022/12/16 01:37:42;;;;;;;;;;;;;;;3.33;100.00;99180.28;5022203;28;19925;-80
2022/12/16 01:40:13;;;;;;;;;;;;;;;3.27;100.00;99167.78;5000655;28;19944;-82
2022/12/16 01:42:38;;;;;;;;;;;;;;;3.60;100.00;99167.09;5017146;28;19956;-83
2022/12/16 01:45:22;;;;;;;;;;;;;;;3.52;100.00;99168.81;5017261;28;19925;-81
2022/12/16 01:47:47;;;;;;;;;;;;;;;3.67;100.00;99171.72;5017230;28;19933;-84
2022/12/16 01:50:15;;;;;;;;;;;;;;;3.70;100.00;99176.66;5017384;28;20393;-82
2022/12/16 01:52:43;;;;;;;;;;;;;;;3.88;100.00;99174.88;5017469;28;19972;-83
2022/12/16 01:55:17;;;;;;;;;;;;;;;4.09;100.00;99156.97;4999482;28;19922;-84
2022/12/16 01:57:50;;;;;;;;;;;;;;;4.00;100.00;99165.78;5016790;28;19932;-85
2022/12/16 02:00:16;;;;;;;;;;;;;;;3.99;100.00;99158.88;5016613;28;19921;-82
2022/12/16 02:02:43;;;;;;;;;;;;;;;4.06;100.00;99157.28;5016811;28;19971;-82
2022/12/16 02:05:21;;;;;;;;;;;;;;;4.12;100.00;99161.91;4999181;28;19932;-85
2022/12/16 02:08:03;;;;;;;;;;;;;;;4.24;100.00;99162.47;5017320;28;19932;-82
2022/12/16 02:10:38;;;;;;;;;;;;;;;4.37;100.00;99155.00;5018128;28;19941;-84
2022/12/16 02:13:19;;;;;;;;;;;;;;;4.09;100.00;99156.97;4999116;28;19932;-81
2022/12/16 02:15:50;;;;;;;;;;;;;;;3.92;100.00;99155.22;4998757;28;19991;-84
2022/12/16 02:18:35;;;;;;;;;;;;;;;3.90;100.00;99157.19;5016788;28;20400;-81
2022/12/16 02:21:05;;;;;;;;;;;;;;;3.80;100.00;99161.69;5016766;28;19928;-84
2022/12/16 02:23:34;;;;;;;;;;;;;;;3.60;100.00;99169.72;5016580;28;20298;-85
2022/12/16 02:26:20;;;;;;;;;;;;;;;3.56;100.00;99171.00;5016498;28;20342;-83
2022/12/16 02:29:03;;;;;;;;;;;;;;;3.55;100.00;99174.56;5024602;28;20035;-84
2022/12/16 02:31:38;;;;;;;;;;;;;;;3.67;100.00;99169.94;5025680;28;19932;-84
2022/12/16 02:34:03;;;;;;;;;;;;;;;3.78;100.00;99174.94;5016200;28;19921;-81
2022/12/16 02:36:29;;;;;;;;;;;;;;;3.86;100.00;99174.16;5016140;28;19929;-82
2022/12/16 02:39:00;;;;;;;;;;;;;;;4.12;100.00;99175.00;5016357;28;19922;-82
2022/12/16 02:41:37;;;;;;;;;;;;;;;3.86;100.00;99171.56;5015940;28;19948;-84
2022/12/16 02:44:08;;;;;;;;;;;;;;;4.01;100.00;99173.47;5034210;28;19922;-83
2022/12/16 02:46:37;;;;;;;;;;;;;;;3.92;100.00;99177.00;5035663;28;19921;-84
2022/12/16 02:49:07;;;;;;;;;;;;;;;3.86;100.00;99171.56;5035767;28;19922;-83
2022/12/16 02:51:33;;;;;;;;;;;;;;;3.87;100.00;99152.25;5017778;28;19921;-82
2022/12/16 02:53:59;;;;;;;;;;;;;;;3.99;100.00;99162.31;5035776;28;19928;-83
2022/12/16 02:56:36;;;;;;;;;;;;;;;3.81;100.00;99173.81;5035609;28;19965;-84
2022/12/16 02:59:08;;;;;;;;;;;;;;;3.78;100.00;99168.88;5017896;28;19921;-85
2022/12/16 03:01:33;;;;;;;;;;;;;;;3.81;100.00;99163.34;5018215;28;19964;-82
2022/12/16 03:04:01;;;;;;;;;;;;;;;3.98;100.00;99165.06;5020686;28;19968;-82
2022/12/16 03:06:29;;;;;;;;;;;;;;;3.83;100.00;99171.88;5035935;28;19921;-82
2022/12/16 03:08:56;;;;;;;;;;;;;;;3.83;100.00;99170.06;5034839;28;19931;-83
2022/12/16 03:11:24;;;;;;;;;;;;;;;3.84;100.00;99168.28;5035299;28;20015;-83
2022/12/16 03:13:52;;;;;;;;;;;;;;;3.83;100.00;99171.88;5017351;28;19948;-84
2022/12/16 03:16:19;;;;;;;;;;;;;;;3.73;100.00;99179.81;5035117;28;20031;-82
2022/12/16 03:18:49;;;;;;;;;;;;;;;3.73;100.00;99171.94;5034847;28;20007;-84
2022/12/16 03:21:15;;;;;;;;;;;;;;;3.82;100.00;99178.06;5034967;28;19921;-84
2022/12/16 03:23:44;;;;;;;;;;;;;;;3.94;100.00;99180.31;5034333;28;19921;-83
2022/12/16 03:26:14;;;;;;;;;;;;;;;3.88;100.00;99169.63;5034531;28;19956;-85
2022/12/16 03:28:46;;;;;;;;;;;;;;;3.88;100.00;99180.09;5033344;28;19928;-82
2022/12/16 03:31:31;;;;;;;;;;;;;;;4.01;100.00;99160.34;5034341;28;19990;-83
2022/12/16 03:34:06;;;;;;;;;;;;;;;4.01;100.00;99155.13;5034151;28;19928;-82
2022/12/16 03:36:33;;;;;;;;;;;;;;;3.90;100.00;99157.19;5034227;28;19921;-83
2022/12/16 03:39:00;;;;;;;;;;;;;;;3.93;100.00;99154.25;5034488;28;19956;-85
2022/12/16 03:41:27;;;;;;;;;;;;;;;3.86;100.00;99150.59;5034445;28;19921;-83
2022/12/16 03:43:52;;;;;;;;;;;;;;;3.95;100.00;99160.16;5034194;28;19928;-86
2022/12/16 03:46:18;;;;;;;;;;;;;;;3.98;100.00;99170.31;5044365;28;19937;-83
2022/12/16 03:48:45;;;;;;;;;;;;;;;3.95;100.00;99175.88;5047344;28;19925;-82
2022/12/16 03:51:10;;;;;;;;;;;;;;;3.99;100.00;99180.66;5053557;28;19921;-83
2022/12/16 03:53:35;;;;;;;;;;;;;;;4.03;100.00;99178.56;5052087;28;19925;-84
2022/12/16 03:56:01;;;;;;;;;;;;;;;4.08;100.00;99173.66;5053004;28;19944;-82
2022/12/16 03:58:26;;;;;;;;;;;;;;;4.07;100.00;99172.88;5029533;28;19935;-84
2022/12/16 04:00:52;;;;;;;;;;;;;;;3.94;100.00;99164.59;5053656;28;19921;-84
2022/12/16 04:03:17;;;;;;;;;;;;;;;3.95;100.00;99165.38;5052042;28;19925;-84
2022/12/16 04:05:44;;;;;;;;;;;;;;;4.05;100.00;99161.69;5051958;28;19929;-86
2022/12/16 04:08:09;;;;;;;;;;;;;;;4.02;100.00;99171.66;5018935;28;20352;-83
2022/12/16 04:24:20;;;;;;;;;;;;;;;3.74;100.00;99173.59;5033667;28;20391;-83
2022/12/16 04:29:33;;;;;;;;;;;;;;;3.68;100.00;99187.28;5033747;28;19921;-84
2022/12/16 04:31:59;;;;;;;;;;;;;;;3.68;100.00;99189.91;5037231;28;19943;-82
2022/12/16 04:34:24;;;;;;;;;;;;;;;3.68;100.00;99183.88;5034343;28;19920;-84
